Time;durP1;ratioP1;P1;durP2;ratioP2;P2;SDS_P1;SDS_P2;PMS_P1;PMS_P2;Temp;Humidity;BMP_temperature;BMP_pressure;BME280_temperature;BME280_humidity;BME280_pressure;Samples;Min_cycle;Max_cycle;Signal;HPM_P1;HPM_P2
2023/09/24 00:02:25;;;;;;;;;3.00;2.00;;;;;24.30;44.57;101279.90;110240;1264;18532;-36
2023/09/24 00:04:51;;;;;;;;;3.00;3.00;;;;;24.32;44.48;101287.72;110203;1257;19334;-36
2023/09/24 00:07:19;;;;;;;;;2.00;2.00;;;;;24.31;44.40;101289.70;110192;1260;18671;-36
2023/09/24 00:09:45;;;;;;;;;2.00;2.00;;;;;24.28;44.56;101290.58;110217;1257;21800;-35
2023/09/24 00:12:11;;;;;;;;;3.00;3.00;;;;;24.29;44.41;101299.95;110212;1247;20568;-37
2023/09/24 00:14:37;;;;;;;;;2.00;2.00;;;;;24.29;44.67;101302.63;110232;1247;19847;-36
2023/09/24 00:17:05;;;;;;;;;3.00;3.00;;;;;24.30;44.51;101307.11;110213;1250;19850;-36
2023/09/24 00:19:31;;;;;;;;;2.00;2.00;;;;;24.29;44.49;101306.95;110271;1248;21006;-36
2023/09/24 00:21:57;;;;;;;;;2.00;2.00;;;;;24.29;44.47;101310.13;110221;1264;18209;-36
2023/09/24 00:24:23;;;;;;;;;2.00;2.00;;;;;24.28;44.37;101311.45;110229;1250;20089;-37
2023/09/24 00:26:49;;;;;;;;;2.00;2.00;;;;;24.29;44.35;101315.22;110201;1264;19146;-36
2023/09/24 00:29:15;;;;;;;;;3.00;2.00;;;;;24.29;44.58;101314.23;110212;1250;22091;-36
2023/09/24 00:31:41;;;;;;;;;3.00;2.00;;;;;24.26;44.66;101316.59;110220;1257;23933;-36
2023/09/24 00:34:08;;;;;;;;;2.00;2.00;;;;;24.29;44.64;101324.80;110217;1250;20575;-36
2023/09/24 00:36:34;;;;;;;;;3.00;3.00;;;;;24.28;44.65;101321.36;110233;1250;19648;-37
2023/09/24 00:39:00;;;;;;;;;2.00;2.00;;;;;24.29;44.46;101321.95;110180;1250;19800;-36
2023/09/24 00:41:26;;;;;;;;;2.00;2.00;;;;;24.28;44.51;101318.94;110178;1263;19487;-37
2023/09/24 00:43:52;;;;;;;;;2.00;2.00;;;;;24.27;44.49;101317.58;110224;1264;18389;-36
2023/09/24 00:46:21;;;;;;;;;3.00;3.00;;;;;24.29;44.34;101314.23;110216;1263;18441;-36
2023/09/24 00:48:47;;;;;;;;;3.00;3.00;;;;;24.29;44.42;101316.64;110163;1250;20726;-37
2023/09/24 00:51:13;;;;;;;;;2.00;2.00;;;;;24.31;44.20;101320.63;110233;1250;19407;-37
2023/09/24 00:53:39;;;;;;;;;3.00;3.00;;;;;24.30;44.28;101317.96;110247;1264;18393;-38
2023/09/24 00:56:05;;;;;;;;;3.00;3.00;;;;;24.29;44.50;101323.11;110210;1263;19583;-37
2023/09/24 00:58:34;;;;;;;;;2.00;2.00;;;;;24.30;44.35;101328.03;110198;1264;18704;-37
2023/09/24 01:01:00;;;;;;;;;2.00;2.00;;;;;24.28;44.40;101333.95;110225;1264;20327;-37
2023/09/24 01:03:26;;;;;;;;;5.00;3.00;;;;;24.28;44.32;101335.80;110236;1247;20535;-36
2023/09/24 01:05:52;;;;;;;;;2.00;2.00;;;;;24.28;44.52;101337.78;110223;1250;19789;-36
2023/09/24 01:08:19;;;;;;;;;2.00;2.00;;;;;24.29;44.41;101341.77;110273;1250;20043;-38
2023/09/24 01:10:47;;;;;;;;;2.00;2.00;;;;;24.29;44.43;101342.60;110204;1256;22155;-36
2023/09/24 01:13:15;;;;;;;;;2.00;2.00;;;;;24.29;44.32;101345.73;110233;1264;18306;-37
2023/09/24 01:15:42;;;;;;;;;2.00;2.00;;;;;24.30;44.29;101341.17;110195;1264;18756;-36
2023/09/24 01:18:08;;;;;;;;;2.00;2.00;;;;;24.29;44.39;101347.47;110210;1256;21909;-37
2023/09/24 01:20:36;;;;;;;;;2.00;2.00;;;;;24.28;44.29;101347.36;110210;1264;23152;-37
2023/09/24 01:23:04;;;;;;;;;2.00;2.00;;;;;24.26;44.22;101341.50;110202;1247;20228;-36
2023/09/24 01:25:30;;;;;;;;;2.00;2.00;;;;;24.30;44.40;101338.21;110216;1247;22233;-37
2023/09/24 01:27:56;;;;;;;;;3.00;2.00;;;;;24.31;44.11;101337.45;110222;1250;20848;-37
2023/09/24 01:30:22;;;;;;;;;2.00;2.00;;;;;24.31;44.25;101338.48;110220;1248;18414;-36
2023/09/24 01:32:50;;;;;;;;;2.00;2.00;;;;;24.32;44.08;101339.36;110117;1248;21743;-37
2023/09/24 01:35:17;;;;;;;;;2.00;2.00;;;;;24.30;44.15;101343.36;110193;1247;22381;-36
2023/09/24 01:37:43;;;;;;;;;2.00;2.00;;;;;24.29;44.17;101338.33;110208;1263;21895;-37
2023/09/24 01:40:19;;;;;;;;;3.00;3.00;;;;;24.28;44.27;101338.21;110199;1250;22992;-34
2023/09/24 01:42:45;;;;;;;;;3.00;2.33;;;;;24.28;44.29;101340.80;110235;1263;18364;-36
2023/09/24 01:45:11;;;;;;;;;2.50;2.50;;;;;24.29;44.25;101341.17;110201;1250;20222;-37
2023/09/24 01:47:37;;;;;;;;;2.00;2.00;;;;;24.30;44.12;101343.14;110248;1256;20505;-37
2023/09/24 01:50:06;;;;;;;;;2.00;2.00;;;;;24.28;44.27;101342.77;110221;1263;22677;-35
2023/09/24 01:52:33;;;;;;;;;2.00;2.00;;;;;24.28;44.05;101346.92;110403;1247;23485;-36
2023/09/24 01:54:59;;;;;;;;;1.50;1.00;;;;;24.32;44.17;101343.73;110396;1248;20817;-36
2023/09/24 01:57:25;;;;;;;;;1.50;1.50;;;;;24.30;44.21;101344.89;110377;1248;19390;-36
2023/09/24 01:59:51;;;;;;;;;1.50;1.50;;;;;24.30;43.99;101350.86;110377;1262;18373;-38
2023/09/24 02:02:18;;;;;;;;;2.00;2.00;;;;;24.29;44.03;101348.57;110369;1248;23025;-36
2023/09/24 02:04:44;;;;;;;;;3.00;2.00;;;;;24.28;44.09;101347.64;110372;1247;22331;-36
2023/09/24 02:07:12;;;;;;;;;2.00;2.00;;;;;24.30;44.22;101350.70;110384;1248;22594;-37
2023/09/24 02:09:38;;;;;;;;;2.50;2.00;;;;;24.28;44.18;101356.61;110383;1262;22961;-36
2023/09/24 02:12:04;;;;;;;;;2.00;2.00;;;;;24.31;43.92;101361.65;110389;1247;19902;-36
2023/09/24 02:14:30;;;;;;;;;1.00;1.00;;;;;24.31;44.20;101366.02;110381;1247;20938;-36
2023/09/24 02:16:56;;;;;;;;;2.00;2.00;;;;;24.29;44.02;101365.66;110421;1247;22371;-36
2023/09/24 02:19:25;;;;;;;;;2.00;2.00;;;;;24.30;44.14;101367.56;110381;1262;18396;-36
2023/09/24 02:21:50;;;;;;;;;2.00;2.00;;;;;24.30;43.99;101370.25;110388;1262;21789;-37
2023/09/24 02:24:17;;;;;;;;;2.00;2.00;;;;;24.30;43.99;101372.60;110386;1248;20536;-37
2023/09/24 02:26:42;;;;;;;;;2.00;2.00;;;;;24.30;44.10;101381.15;110182;1263;18414;-37
2023/09/24 02:29:09;;;;;;;;;2.00;2.00;;;;;24.32;44.11;101384.20;110225;1258;18345;-35
2023/09/24 02:31:35;;;;;;;;;2.00;2.00;;;;;24.32;44.06;101385.20;110192;1248;20787;-36
2023/09/24 02:34:01;;;;;;;;;2.00;2.00;;;;;24.31;44.11;101392.20;110183;1263;18567;-37
2023/09/24 02:36:27;;;;;;;;;1.50;1.50;;;;;24.30;44.14;101395.98;110239;1250;19989;-36
2023/09/24 02:38:53;;;;;;;;;1.00;1.00;;;;;24.29;43.91;101397.67;110169;1250;19140;-36
2023/09/24 02:41:19;;;;;;;;;2.00;2.00;;;;;24.28;43.97;101399.92;110205;1250;22774;-36
2023/09/24 02:43:45;;;;;;;;;1.00;1.00;;;;;24.28;43.99;101403.70;110258;1264;19872;-36
2023/09/24 02:46:12;;;;;;;;;2.00;2.00;;;;;24.30;43.92;101408.63;110210;1256;22842;-36
2023/09/24 02:48:38;;;;;;;;;1.00;1.00;;;;;24.32;43.87;101405.67;110211;1250;19656;-37
2023/09/24 02:51:04;;;;;;;;;2.00;2.00;;;;;24.30;44.09;101407.20;110212;1250;21607;-36
2023/09/24 02:53:30;;;;;;;;;1.00;1.00;;;;;24.31;44.02;101413.50;110226;1257;20742;-36
2023/09/24 02:55:56;;;;;;;;;;;;;;;24.29;44.11;101418.38;110230;1250;22806;-37
2023/09/24 02:58:22;;;;;;;;;3.00;3.00;;;;;24.30;43.89;101428.23;110243;1248;19378;-37
2023/09/24 03:00:50;;;;;;;;;1.00;1.00;;;;;24.30;43.91;101436.02;110195;1248;20865;-37
2023/09/24 03:03:16;;;;;;;;;2.50;2.00;;;;;24.28;44.08;101440.56;110216;1248;19876;-37
2023/09/24 03:05:43;;;;;;;;;2.00;2.00;;;;;24.31;43.93;101436.12;110225;1247;20288;-36
2023/09/24 03:08:09;;;;;;;;;3.00;2.00;;;;;24.29;43.83;101445.60;110186;1250;20547;-36
2023/09/24 03:10:35;;;;;;;;;1.50;1.50;;;;;24.30;43.92;101445.77;110216;1257;19700;-36
2023/09/24 03:13:02;;;;;;;;;1.67;1.67;;;;;24.31;43.94;101451.02;110207;1257;22179;-36
2023/09/24 03:15:28;;;;;;;;;1.00;1.00;;;;;24.28;43.77;101452.77;110225;1263;19206;-37
2023/09/24 03:17:54;;;;;;;;;3.00;3.00;;;;;24.28;44.01;101460.00;110198;1250;19458;-36
2023/09/24 03:20:20;;;;;;;;;2.00;2.00;;;;;24.29;43.80;101460.70;110208;1257;19821;-37
2023/09/24 03:22:48;;;;;;;;;2.50;2.50;;;;;24.30;43.85;101460.55;110202;1249;20768;-36
2023/09/24 03:25:16;;;;;;;;;2.00;2.00;;;;;24.30;43.77;101462.95;110273;1264;21005;-36
2023/09/24 03:27:42;;;;;;;;;2.00;2.00;;;;;24.31;43.84;101460.59;110222;1247;23158;-36
2023/09/24 03:30:09;;;;;;;;;2.00;2.00;;;;;24.32;43.78;101463.83;110222;1247;19111;-37
2023/09/24 03:32:36;;;;;;;;;2.00;2.00;;;;;24.32;43.73;101470.45;110213;1264;22106;-36
2023/09/24 03:35:03;;;;;;;;;2.50;2.00;;;;;24.30;43.68;101477.57;110189;1258;20125;-36
2023/09/24 03:37:29;;;;;;;;;1.00;1.00;;;;;24.30;43.75;101479.23;110201;1250;20814;-36
2023/09/24 03:39:55;;;;;;;;;1.00;1.00;;;;;24.32;43.44;101487.81;110220;1247;22793;-35
2023/09/24 03:42:21;;;;;;;;;1.00;1.00;;;;;24.29;43.49;101487.10;110195;1250;22076;-37
2023/09/24 03:44:47;;;;;;;;;2.00;2.00;;;;;24.31;43.58;101488.04;110216;1264;19197;-38
2023/09/24 03:47:14;;;;;;;;;3.00;3.00;;;;;24.28;43.59;101485.46;110181;1250;19599;-36
2023/09/24 03:49:40;;;;;;;;;2.33;2.00;;;;;24.28;43.60;101486.94;110192;1264;22321;-37
2023/09/24 03:52:06;;;;;;;;;2.00;2.00;;;;;24.29;43.72;101495.31;110218;1250;23136;-37
2023/09/24 03:54:32;;;;;;;;;2.67;2.67;;;;;24.28;43.53;101498.39;110211;1250;19309;-37
2023/09/24 03:56:58;;;;;;;;;2.00;2.00;;;;;24.29;43.68;101500.69;110195;1249;20006;-37
2023/09/24 03:59:24;;;;;;;;;2.00;2.00;;;;;24.29;43.53;101506.88;110207;1264;22329;-35
2023/09/24 04:01:50;;;;;;;;;2.00;2.00;;;;;24.27;43.56;101508.84;110213;1264;22322;-37
2023/09/24 04:04:16;;;;;;;;;2.00;2.00;;;;;24.27;43.50;101508.73;110224;1265;22184;-37
2023/09/24 04:06:43;;;;;;;;;2.00;2.00;;;;;24.27;43.45;101513.39;110257;1251;21707;-37
2023/09/24 04:09:09;;;;;;;;;1.50;1.50;;;;;24.30;43.50;101514.80;110217;1264;18400;-36
2023/09/24 04:11:35;;;;;;;;;2.00;2.00;;;;;24.29;43.56;101517.60;110144;1251;19765;-36
2023/09/24 04:14:02;;;;;;;;;1.00;1.00;;;;;24.30;43.67;101517.71;110215;1250;20487;-36
2023/09/24 04:16:28;;;;;;;;;2.00;2.00;;;;;24.30;43.58;101515.09;110198;1263;21724;-36
2023/09/24 04:18:54;;;;;;;;;2.50;2.50;;;;;24.31;43.56;101514.75;110189;1263;18593;-35
2023/09/24 04:21:20;;;;;;;;;2.00;2.00;;;;;24.31;43.40;101519.90;110226;1250;20718;-37
2023/09/24 04:23:46;;;;;;;;;3.00;3.00;;;;;24.29;43.34;101533.15;110224;1263;19821;-37
2023/09/24 04:26:13;;;;;;;;;1.50;1.50;;;;;24.30;43.37;101541.31;110215;1250;19954;-36
2023/09/24 04:28:39;;;;;;;;;2.00;2.00;;;;;24.29;43.56;101545.92;110151;1250;22169;-36
2023/09/24 04:31:05;;;;;;;;;1.50;1.50;;;;;24.28;43.38;101542.03;110200;1264;22395;-37
2023/09/24 04:33:31;;;;;;;;;2.00;2.00;;;;;24.28;43.49;101541.70;110208;1248;22293;-37
2023/09/24 04:35:57;;;;;;;;;2.00;2.00;;;;;24.29;43.53;101543.45;110233;1257;20782;-37
2023/09/24 04:38:23;;;;;;;;;3.00;3.00;;;;;24.32;43.31;101543.95;110239;1263;22322;-36
2023/09/24 04:40:49;;;;;;;;;2.00;2.00;;;;;24.31;43.44;101548.81;110206;1250;19701;-37
2023/09/24 04:43:17;;;;;;;;;2.00;2.00;;;;;24.29;43.30;101556.05;110234;1250;20540;-37
2023/09/24 04:45:44;;;;;;;;;1.00;1.00;;;;;24.31;43.35;101560.59;110219;1247;19546;-36
2023/09/24 04:48:10;;;;;;;;;2.00;2.00;;;;;24.31;43.30;101568.15;110193;1249;21311;-36
2023/09/24 04:50:35;;;;;;;;;2.00;2.00;;;;;24.29;43.36;101571.27;110196;1247;19140;-36
2023/09/24 04:53:05;;;;;;;;;2.00;2.00;;;;;24.31;43.32;101573.46;110255;1263;18274;-36
2023/09/24 04:55:31;;;;;;;;;2.00;2.00;;;;;24.29;43.38;101571.59;110181;1250;20039;-37
2023/09/24 04:57:57;;;;;;;;;2.50;2.50;;;;;24.32;43.32;101580.85;110202;1263;22912;-37
2023/09/24 05:00:23;;;;;;;;;3.00;2.00;;;;;24.33;43.23;101583.20;110217;1249;22805;-38
2023/09/24 05:02:49;;;;;;;;;2.00;2.00;;;;;24.27;43.19;101583.70;110209;1250;22481;-37
2023/09/24 05:05:15;;;;;;;;;3.00;2.00;;;;;24.32;42.99;101587.59;110161;1250;20622;-36
2023/09/24 05:07:41;;;;;;;;;2.00;2.00;;;;;24.33;43.09;101590.59;110215;1257;18459;-36
2023/09/24 05:10:07;;;;;;;;;3.00;3.00;;;;;24.34;43.00;101593.08;110204;1263;18595;-37
2023/09/24 05:12:33;;;;;;;;;1.67;1.67;;;;;24.33;43.18;101599.47;110203;1247;22181;-35
2023/09/24 05:14:59;;;;;;;;;2.00;2.00;;;;;24.31;43.16;101602.81;110223;1263;18184;-36
2023/09/24 05:17:25;;;;;;;;;2.00;2.00;;;;;24.32;43.07;101607.85;110228;1250;19882;-36
2023/09/24 05:19:51;;;;;;;;;2.00;2.00;;;;;24.35;42.98;101612.06;110197;1264;19136;-37
2023/09/24 05:22:17;;;;;;;;;2.00;2.00;;;;;24.36;43.07;101612.45;110217;1263;18674;-36
2023/09/24 05:24:43;;;;;;;;;2.00;2.00;;;;;24.37;43.06;101613.98;110210;1247;18401;-38
2023/09/24 05:27:09;;;;;;;;;2.00;2.00;;;;;24.39;42.81;101619.35;110192;1263;22774;-36
2023/09/24 05:29:35;;;;;;;;;2.00;2.00;;;;;24.39;42.86;101622.15;110221;1263;22306;-36
2023/09/24 05:32:02;;;;;;;;;2.00;2.00;;;;;24.43;42.95;101629.05;110226;1247;19841;-36
2023/09/24 05:34:28;;;;;;;;;2.00;2.00;;;;;24.42;43.00;101633.42;110187;1247;20849;-37
2023/09/24 05:36:54;;;;;;;;;3.00;3.00;;;;;24.45;42.98;101636.73;110234;1248;19500;-36
2023/09/24 05:39:20;;;;;;;;;1.00;1.00;;;;;24.42;42.72;101641.65;110213;1250;18817;-37
2023/09/24 05:41:46;;;;;;;;;2.00;2.00;;;;;24.43;42.76;101641.48;110210;1249;21928;-35
2023/09/24 05:44:12;;;;;;;;;6.00;5.00;;;;;24.43;42.56;101647.23;110209;1247;23078;-37
2023/09/24 05:46:38;;;;;;;;;8.00;8.00;;;;;24.35;41.83;101648.87;110198;1247;20088;-37
2023/09/24 05:49:05;;;;;;;;;7.00;6.50;;;;;24.24;41.03;101651.08;110213;1263;19733;-37
2023/09/24 05:51:31;;;;;;;;;10.50;10.00;;;;;24.15;40.46;101652.81;110202;1250;20957;-36
2023/09/24 05:53:58;;;;;;;;;9.00;9.00;;;;;24.09;39.97;101650.06;110222;1247;22232;-36
2023/09/24 05:56:24;;;;;;;;;10.67;9.67;;;;;24.10;40.04;101649.25;110247;1248;19414;-36
2023/09/24 05:58:50;;;;;;;;;10.50;10.00;;;;;24.04;40.16;101651.37;110218;1247;19632;-37
2023/09/24 06:01:16;;;;;;;;;13.00;10.00;;;;;24.02;39.49;101660.94;110193;1250;22457;-37
2023/09/24 06:03:42;;;;;;;;;18.00;15.00;;;;;24.02;39.63;101656.06;110249;1250;20610;-37
2023/09/24 06:06:09;;;;;;;;;14.00;13.00;;;;;24.02;39.44;101657.38;110249;1250;18589;-37
2023/09/24 06:08:36;;;;;;;;;11.00;10.50;;;;;24.08;39.12;101663.42;106312;1264;5067854;-36
2023/09/24 06:11:02;;;;;;;;;13.00;10.67;;;;;23.98;39.29;101668.54;110213;1264;19375;-37
2023/09/24 06:13:28;;;;;;;;;;;;;;;23.97;39.08;101672.64;110234;1263;23465;-37
2023/09/24 06:15:54;;;;;;;;;7.00;7.00;;;;;23.96;39.15;101677.89;110265;1264;22820;-36
2023/09/24 06:18:20;;;;;;;;;13.50;11.00;;;;;23.96;39.16;101676.25;110187;1263;19071;-36
2023/09/24 06:20:46;;;;;;;;;10.00;9.00;;;;;23.98;38.92;101679.92;110195;1263;22865;-36
2023/09/24 06:23:12;;;;;;;;;10.00;9.00;;;;;23.98;38.94;101679.48;110202;1247;22774;-36
2023/09/24 06:25:38;;;;;;;;;11.00;10.00;;;;;23.98;39.23;101679.05;110209;1256;22530;-36
2023/09/24 06:28:09;;;;;;;;;9.50;8.00;;;;;23.99;39.18;101678.02;110203;1264;18414;-37
2023/09/24 06:30:34;;;;;;;;;10.50;9.50;;;;;23.98;39.24;101686.92;110230;1263;18659;-37
2023/09/24 06:33:00;;;;;;;;;11.00;10.00;;;;;23.97;39.16;101687.04;110195;1250;20563;-37
2023/09/24 06:35:26;;;;;;;;;7.00;7.00;;;;;23.99;39.13;101689.67;110383;1262;18770;-37
2023/09/24 06:37:52;;;;;;;;;6.50;6.00;;;;;24.00;39.22;101692.57;110368;1262;18652;-37
2023/09/24 06:40:19;;;;;;;;;13.00;11.00;;;;;24.04;39.04;101698.23;110399;1262;19212;-37
2023/09/24 06:42:46;;;;;;;;;9.00;9.00;;;;;24.01;39.12;101702.20;110370;1248;22589;-37
2023/09/24 06:45:11;;;;;;;;;6.50;6.50;;;;;23.99;39.00;101705.81;110437;1248;20065;-36
2023/09/24 06:47:37;;;;;;;;;9.33;7.00;;;;;23.98;39.13;101710.80;110366;1248;22689;-37
2023/09/24 06:50:03;;;;;;;;;6.50;6.50;;;;;23.95;39.21;101709.52;110381;1248;22817;-36
2023/09/24 06:52:30;;;;;;;;;7.00;7.00;;;;;23.95;39.53;101717.90;110193;1247;19985;-36
2023/09/24 06:54:56;;;;;;;;;10.00;9.33;;;;;23.96;39.43;101719.93;110283;1247;20865;-37
2023/09/24 06:57:22;;;;;;;;;7.00;7.00;;;;;23.98;39.66;101718.79;110246;1250;23081;-36
2023/09/24 06:59:48;;;;;;;;;10.00;10.00;;;;;24.01;39.42;101715.67;110251;1250;21022;-37
2023/09/24 07:02:14;;;;;;;;;;;;;;;23.97;39.56;101718.84;110209;1250;22459;-36
2023/09/24 07:04:40;;;;;;;;;7.00;7.00;;;;;23.99;39.34;101721.25;110231;1247;22466;-36
2023/09/24 07:07:07;;;;;;;;;10.00;9.00;;;;;24.02;39.81;101727.78;110188;1250;22318;-36
2023/09/24 07:09:33;;;;;;;;;8.00;7.00;;;;;24.10;39.62;101732.73;110241;1264;22047;-37
2023/09/24 07:12:00;;;;;;;;;7.00;6.00;;;;;24.11;39.60;101732.35;110265;1263;18684;-37
2023/09/24 07:14:26;;;;;;;;;11.00;10.00;;;;;24.16;39.32;101734.88;110202;1247;21050;-37
2023/09/24 07:16:52;;;;;;;;;10.00;10.00;;;;;24.08;39.56;101736.23;110228;1250;20095;-37
2023/09/24 07:19:19;;;;;;;;;12.00;12.00;;;;;23.72;40.39;101741.66;110243;1257;19634;-37
2023/09/24 07:21:45;;;;;;;;;13.00;12.00;;;;;23.72;40.24;101752.44;110139;1247;18624;-36
2023/09/24 07:24:11;;;;;;;;;10.00;10.00;;;;;23.69;40.24;101759.86;110285;1251;22455;-37
2023/09/24 07:26:37;;;;;;;;;9.50;9.50;;;;;23.58;41.00;101765.98;110277;1247;24081;-37
2023/09/24 07:29:03;;;;;;;;;12.00;10.00;;;;;23.53;41.28;101768.40;110267;1264;22631;-37
2023/09/24 07:31:29;;;;;;;;;12.00;12.00;;;;;23.60;41.51;101770.80;110239;1250;20514;-36
2023/09/24 07:33:55;;;;;;;;;9.00;9.00;;;;;23.57;41.84;101772.92;110296;1263;22161;-38
2023/09/24 07:36:21;;;;;;;;;8.00;8.00;;;;;23.71;41.45;101773.33;110252;1264;21096;-38
2023/09/24 07:38:49;;;;;;;;;8.00;8.00;;;;;23.97;41.18;101777.13;110259;1263;19083;-39
2023/09/24 07:41:15;;;;;;;;;9.00;9.00;;;;;24.07;41.13;101778.92;110212;1250;22805;-37
2023/09/24 07:43:42;;;;;;;;;12.00;10.00;;;;;24.08;40.86;101782.16;110163;1256;21618;-38
2023/09/24 07:46:11;;;;;;;;;9.50;9.00;;;;;24.10;40.88;101778.88;110169;1263;22742;-38
2023/09/24 07:48:37;;;;;;;;;10.00;9.67;;;;;24.12;40.71;101783.43;110215;1247;18816;-39
2023/09/24 07:51:03;;;;;;;;;10.00;10.00;;;;;24.07;40.84;101783.74;110235;1247;22631;-39
2023/09/24 07:53:28;;;;;;;;;14.00;13.00;;;;;24.06;40.66;101785.65;110198;1250;22259;-39
2023/09/24 07:55:55;;;;;;;;;13.00;12.50;;;;;24.10;40.94;101787.09;110209;1263;22835;-40
2023/09/24 07:58:21;;;;;;;;;9.00;9.00;;;;;24.10;41.10;101790.77;110235;1248;21999;-38
2023/09/24 08:00:46;;;;;;;;;10.00;10.00;;;;;24.10;40.81;101791.25;110244;1250;20510;-38
2023/09/24 08:03:13;;;;;;;;;10.00;9.00;;;;;24.16;40.92;101794.02;110184;1247;20935;-39
2023/09/24 08:05:39;;;;;;;;;13.00;12.00;;;;;23.99;41.39;101797.11;110242;1250;20075;-39
2023/09/24 08:08:06;;;;;;;;;12.00;12.00;;;;;23.80;41.57;101803.75;110183;1263;19241;-39
2023/09/24 08:10:32;;;;;;;;;12.00;12.00;;;;;23.86;41.73;101805.10;110199;1247;22133;-39
2023/09/24 08:12:59;;;;;;;;;9.00;9.00;;;;;23.69;42.70;101809.92;110248;1247;18718;-39
2023/09/24 08:15:24;;;;;;;;;9.50;9.50;;;;;23.82;42.99;101807.15;110252;1250;20646;-40
2023/09/24 08:17:51;;;;;;;;;8.00;8.00;;;;;23.94;42.84;101811.54;110245;1263;18403;-38
2023/09/24 08:20:17;;;;;;;;;11.00;8.50;;;;;23.97;42.82;101815.83;110205;1248;22683;-40
2023/09/24 08:22:43;;;;;;;;;9.00;9.00;;;;;24.06;42.62;101820.08;110229;1250;22896;-40
2023/09/24 08:25:09;;;;;;;;;10.00;8.00;;;;;24.13;42.26;101823.41;110201;1250;19861;-40
2023/09/24 08:27:35;;;;;;;;;10.00;9.00;;;;;24.17;42.69;101819.32;110145;1264;18912;-40
2023/09/24 08:30:03;;;;;;;;;8.00;8.00;;;;;24.20;42.46;101818.67;110236;1247;21618;-40
2023/09/24 08:32:29;;;;;;;;;8.00;8.00;;;;;24.21;42.60;101816.21;110292;1254;18842;-40
2023/09/24 08:34:55;;;;;;;;;6.00;6.00;;;;;24.19;42.46;101816.97;110263;1264;18319;-40
2023/09/24 08:37:21;;;;;;;;;8.33;8.33;;;;;24.20;42.47;101818.29;110186;1264;19340;-40
2023/09/24 08:39:47;;;;;;;;;9.00;9.00;;;;;24.17;42.44;101820.36;110239;1250;19540;-40
2023/09/24 08:42:13;;;;;;;;;8.00;8.00;;;;;24.18;42.36;101819.10;110230;1247;20209;-40
2023/09/24 08:44:39;;;;;;;;;8.00;8.00;;;;;24.18;42.13;101826.71;110254;1256;22131;-40
2023/09/24 08:47:06;;;;;;;;;8.00;8.00;;;;;-128.00;-1.00;-1.00;106639;1257;1006705;-40
2023/09/24 08:49:32;;;;;;;;;8.00;6.00;;;;;-128.00;-1.00;-1.00;106688;1256;1003222;-40
2023/09/24 08:51:58;;;;;;;;;9.00;9.00;;;;;-128.00;-1.00;-1.00;106672;1263;1002344;-40
2023/09/24 08:54:24;;;;;;;;;9.00;9.00;;;;;-128.00;-1.00;-1.00;106657;1256;1002429;-40
2023/09/24 08:56:50;;;;;;;;;8.00;8.00;;;;;-128.00;-1.00;-1.00;106675;1247;1002733;-40
2023/09/24 08:59:16;;;;;;;;;8.50;8.00;;;;;-128.00;-1.00;-1.00;106670;1247;1002564;-40
2023/09/24 09:01:42;;;;;;;;;8.00;6.00;;;;;-128.00;-1.00;-1.00;106643;1263;1002437;-40
2023/09/24 09:04:08;;;;;;;;;8.00;8.00;;;;;-128.00;-1.00;-1.00;106665;1263;1002594;-40
2023/09/24 09:06:34;;;;;;;;;6.00;6.00;;;;;-128.00;-1.00;-1.00;106676;1263;1002874;-39
2023/09/24 09:09:00;;;;;;;;;9.00;8.00;;;;;-128.00;-1.00;-1.00;106670;1256;1003202;-39
2023/09/24 09:11:26;;;;;;;;;9.00;9.00;;;;;-128.00;-1.00;-1.00;106652;1248;1002270;-40
2023/09/24 09:13:53;;;;;;;;;5.00;5.00;;;;;-128.00;-1.00;-1.00;106714;1263;1002241;-39
2023/09/24 09:16:20;;;;;;;;;8.25;7.75;;;;;-128.00;-1.00;-1.00;106749;1247;1002471;-40
2023/09/24 09:18:46;;;;;;;;;8.00;8.00;;;;;-128.00;-1.00;-1.00;106749;1247;1002772;-40
2023/09/24 09:21:12;;;;;;;;;8.00;8.00;;;;;-128.00;-1.00;-1.00;106721;1247;1002190;-39
2023/09/24 09:23:40;;;;;;;;;9.00;8.00;;;;;-128.00;-1.00;-1.00;106685;1247;1002369;-38
2023/09/24 09:26:06;;;;;;;;;9.00;8.50;;;;;-128.00;-1.00;-1.00;106644;1263;1006985;-39
2023/09/24 09:28:34;;;;;;;;;8.00;8.00;;;;;-128.00;-1.00;-1.00;106614;1264;1002876;-40
2023/09/24 09:31:00;;;;;;;;;9.00;9.00;;;;;-128.00;-1.00;-1.00;106599;1256;1002540;-40
2023/09/24 09:33:26;;;;;;;;;15.67;14.33;;;;;-128.00;-1.00;-1.00;106640;1263;1002170;-39
2023/09/24 09:35:52;;;;;;;;;21.00;18.00;;;;;-128.00;-1.00;-1.00;106634;1264;1004297;-39
2023/09/24 09:38:18;;;;;;;;;18.33;17.67;;;;;-128.00;-1.00;-1.00;106680;1263;1002770;-40
2023/09/24 09:40:44;;;;;;;;;14.00;13.50;;;;;-128.00;-1.00;-1.00;106582;1263;1002563;-39
2023/09/24 09:43:10;;;;;;;;;16.00;14.00;;;;;-128.00;-1.00;-1.00;106689;1247;1002706;-39
2023/09/24 09:45:36;;;;;;;;;13.00;12.33;;;;;-128.00;-1.00;-1.00;106674;1263;1002964;-40
2023/09/24 09:48:02;;;;;;;;;9.00;9.00;;;;;-128.00;-1.00;-1.00;106653;1263;1003366;-39
2023/09/24 09:50:27;;;;;;;;;9.00;9.00;;;;;-128.00;-1.00;-1.00;106649;1263;1003979;-39
2023/09/24 09:52:53;;;;;;;;;8.67;8.00;;;;;-128.00;-1.00;-1.00;106657;1263;1002749;-39
2023/09/24 09:55:19;;;;;;;;;8.00;8.00;;;;;-128.00;-1.00;-1.00;106615;1247;1002446;-39
2023/09/24 09:57:45;;;;;;;;;9.00;9.00;;;;;-128.00;-1.00;-1.00;106684;1256;1002500;-39
2023/09/24 10:00:11;;;;;;;;;9.00;9.00;;;;;-128.00;-1.00;-1.00;106649;1263;1002245;-38
2023/09/24 10:02:37;;;;;;;;;9.00;9.00;;;;;-128.00;-1.00;-1.00;106570;1263;1002885;-38
2023/09/24 10:05:03;;;;;;;;;9.00;8.00;;;;;-128.00;-1.00;-1.00;106664;1263;1002809;-39
2023/09/24 10:07:29;;;;;;;;;9.00;9.00;;;;;-128.00;-1.00;-1.00;106730;1263;1002423;-39
2023/09/24 10:09:55;;;;;;;;;12.00;10.00;;;;;-128.00;-1.00;-1.00;106732;1248;1003141;-39
2023/09/24 10:12:21;;;;;;;;;10.00;10.00;;;;;-128.00;-1.00;-1.00;106737;1263;1002747;-39
2023/09/24 10:14:54;;;;;;;;;20.00;19.50;;;;;-128.00;-1.00;-1.00;106713;1263;1002810;-39
2023/09/24 10:17:20;;;;;;;;;15.25;14.00;;;;;-128.00;-1.00;-1.00;106718;1256;1006080;-39
2023/09/24 10:19:46;;;;;;;;;14.00;13.00;;;;;-128.00;-1.00;-1.00;106660;1264;1002551;-39
2023/09/24 10:22:12;;;;;;;;;13.00;12.00;;;;;-128.00;-1.00;-1.00;106651;1258;1002579;-40
2023/09/24 10:24:38;;;;;;;;;13.00;10.67;;;;;-128.00;-1.00;-1.00;106586;1264;1002632;-39
2023/09/24 10:27:04;;;;;;;;;9.33;9.33;;;;;-128.00;-1.00;-1.00;106629;1257;1003004;-39
2023/09/24 10:29:30;;;;;;;;;10.00;10.00;;;;;-128.00;-1.00;-1.00;106671;1263;1002452;-39
2023/09/24 10:31:56;;;;;;;;;9.50;8.75;;;;;-128.00;-1.00;-1.00;106662;1263;1002820;-39
2023/09/24 10:34:22;;;;;;;;;9.33;9.00;;;;;-128.00;-1.00;-1.00;106641;1263;1002403;-39
2023/09/24 10:36:49;;;;;;;;;10.00;9.00;;;;;-128.00;-1.00;-1.00;106701;1263;1002537;-39
2023/09/24 10:39:15;;;;;;;;;8.50;8.50;;;;;-128.00;-1.00;-1.00;106731;1247;1002849;-40
2023/09/24 10:41:41;;;;;;;;;8.00;8.00;;;;;-128.00;-1.00;-1.00;106709;1263;1003189;-39
2023/09/24 10:44:07;;;;;;;;;9.00;8.00;;;;;-128.00;-1.00;-1.00;106669;1247;1002670;-39
2023/09/24 10:46:33;;;;;;;;;8.25;8.00;;;;;-128.00;-1.00;-1.00;106668;1263;1002078;-39
2023/09/24 10:48:59;;;;;;;;;8.00;8.00;;;;;-128.00;-1.00;-1.00;106656;1263;1002540;-39
2023/09/24 10:51:25;;;;;;;;;8.00;7.67;;;;;-128.00;-1.00;-1.00;106678;1264;1002725;-39
2023/09/24 10:53:51;;;;;;;;;8.00;8.00;;;;;-128.00;-1.00;-1.00;106637;1247;1003319;-40
2023/09/24 10:56:17;;;;;;;;;6.25;6.00;;;;;-128.00;-1.00;-1.00;106648;1264;1003232;-39
2023/09/24 10:58:43;;;;;;;;;8.00;8.00;;;;;-128.00;-1.00;-1.00;106671;1263;1002737;-39
2023/09/24 11:01:09;;;;;;;;;8.00;8.00;;;;;-128.00;-1.00;-1.00;106650;1264;1002711;-40
2023/09/24 11:03:36;;;;;;;;;7.33;7.33;;;;;-128.00;-1.00;-1.00;106655;1256;1002456;-39
2023/09/24 11:06:02;;;;;;;;;7.00;7.00;;;;;-128.00;-1.00;-1.00;106643;1247;1002830;-39
2023/09/24 11:08:28;;;;;;;;;9.50;8.00;;;;;-128.00;-1.00;-1.00;106637;1250;1003005;-39
2023/09/24 11:10:54;;;;;;;;;9.00;9.00;;;;;-128.00;-1.00;-1.00;106663;1247;1002593;-39